sensor_id;sensor_type;location;lat;lon;timestamp;pressure;altitude;pressure_sealevel;temperature;humidity
8585;BME280;7180;52.742;11.420;2023-01-29T00:02:12;101868.88;;;0.95;97.00
8585;BME280;7180;52.742;11.420;2023-01-29T00:04:38;101849.00;;;0.94;97.18
8585;BME280;7180;52.742;11.420;2023-01-29T00:07:03;101830.88;;;0.91;97.06
8585;BME280;7180;52.742;11.420;2023-01-29T00:09:28;101801.56;;;0.83;96.70
8585;BME280;7180;52.742;11.420;2023-01-29T00:11:53;101830.03;;;0.95;96.94
8585;BME280;7180;52.742;11.420;2023-01-29T00:14:19;101800.69;;;0.84;96.99
8585;BME280;7180;52.742;11.420;2023-01-29T00:16:45;101835.22;;;1.01;97.09
8585;BME280;7180;52.742;11.420;2023-01-29T00:19:10;101830.88;;;1.17;96.37
8585;BME280;7180;52.742;11.420;2023-01-29T00:21:36;101744.56;;;0.93;96.42
8585;BME280;7180;52.742;11.420;2023-01-29T00:24:01;101774.78;;;0.94;96.69
8585;BME280;7180;52.742;11.420;2023-01-29T00:26:26;101774.78;;;0.90;96.39
8585;BME280;7180;52.742;11.420;2023-01-29T00:28:52;101777.38;;;0.90;96.51
8585;BME280;7180;52.742;11.420;2023-01-29T00:31:20;101826.56;;;1.13;96.41
8585;BME280;7180;52.742;11.420;2023-01-29T00:33:47;101760.94;;;1.01;96.52
8585;BME280;7180;52.742;11.420;2023-01-29T00:36:14;101716.97;;;0.95;96.37
8585;BME280;7180;52.742;11.420;2023-01-29T00:38:39;101696.25;;;0.83;96.22
8585;BME280;7180;52.742;11.420;2023-01-29T00:41:09;101726.47;;;0.92;95.92
8585;BME280;7180;52.742;11.420;2023-01-29T00:43:53;101736.78;;;0.90;96.19
8585;BME280;7180;52.742;11.420;2023-01-29T00:46:37;101742.84;;;0.92;96.23
8585;BME280;7180;52.742;11.420;2023-01-29T00:49:03;101738.53;;;0.93;96.48
8585;BME280;7180;52.742;11.420;2023-01-29T00:51:29;101748.88;;;0.93;96.35
8585;BME280;7180;52.742;11.420;2023-01-29T00:53:55;101729.03;;;0.87;96.35
8585;BME280;7180;52.742;11.420;2023-01-29T00:56:25;101734.22;;;0.84;96.33
8585;BME280;7180;52.742;11.420;2023-01-29T00:58:51;101745.44;;;0.92;95.98
8585;BME280;7180;52.742;11.420;2023-01-29T01:01:16;101723.84;;;0.87;96.16
8585;BME280;7180;52.742;11.420;2023-01-29T01:04:02;101751.47;;;0.94;96.25
8585;BME280;7180;52.742;11.420;2023-01-29T01:06:27;101765.28;;;0.99;96.41
8585;BME280;7180;52.742;11.420;2023-01-29T01:08:52;101713.50;;;0.84;96.01
8585;BME280;7180;52.742;11.420;2023-01-29T01:11:36;101748.00;;;0.92;96.18
8585;BME280;7180;52.742;11.420;2023-01-29T01:14:01;101751.50;;;0.88;96.16
8585;BME280;7180;52.742;11.420;2023-01-29T01:16:26;101780.81;;;0.98;96.22
8585;BME280;7180;52.742;11.420;2023-01-29T01:18:52;101755.78;;;0.97;95.89
8585;BME280;7180;52.742;11.420;2023-01-29T01:21:17;101742.84;;;0.92;96.20
8585;BME280;7180;52.742;11.420;2023-01-29T01:23:42;101743.72;;;0.93;96.40
8585;BME280;7180;52.742;11.420;2023-01-29T01:26:08;101762.69;;;0.95;96.30
8585;BME280;7180;52.742;11.420;2023-01-29T01:28:34;101773.94;;;0.95;96.23
8585;BME280;7180;52.742;11.420;2023-01-29T01:31:09;101807.59;;;1.06;96.79
8585;BME280;7180;52.742;11.420;2023-01-29T01:33:35;101754.06;;;0.87;96.26
8585;BME280;7180;52.742;11.420;2023-01-29T01:36:01;101756.66;;;0.82;96.80
8585;BME280;7180;52.742;11.420;2023-01-29T01:38:27;101794.63;;;0.91;96.71
8585;BME280;7180;52.742;11.420;2023-01-29T01:40:52;101789.44;;;0.94;96.73
8585;BME280;7180;52.742;11.420;2023-01-29T01:43:17;101773.06;;;0.93;96.47
8585;BME280;7180;52.742;11.420;2023-01-29T01:45:43;101766.13;;;0.92;96.34
8585;BME280;7180;52.742;11.420;2023-01-29T01:48:17;101773.03;;;0.98;96.86
8585;BME280;7180;52.742;11.420;2023-01-29T01:50:57;101769.59;;;0.93;96.60
8585;BME280;7180;52.742;11.420;2023-01-29T01:53:35;101777.38;;;0.94;96.57
8585;BME280;7180;52.742;11.420;2023-01-29T01:56:05;101792.91;;;1.03;97.17
8585;BME280;7180;52.742;11.420;2023-01-29T01:58:38;101760.94;;;0.94;96.48
8585;BME280;7180;52.742;11.420;2023-01-29T02:01:06;101773.91;;;0.92;97.02
8585;BME280;7180;52.742;11.420;2023-01-29T02:03:36;101799.81;;;1.00;97.32
8585;BME280;7180;52.742;11.420;2023-01-29T02:06:23;101830.91;;;1.14;96.81
8585;BME280;7180;52.742;11.420;2023-01-29T02:09:10;101802.41;;;1.09;96.86
8585;BME280;7180;52.742;11.420;2023-01-29T02:11:55;101773.91;;;0.98;97.23
8585;BME280;7180;52.742;11.420;2023-01-29T02:14:20;101789.44;;;1.01;97.21
8585;BME280;7180;52.742;11.420;2023-01-29T02:16:46;101809.28;;;1.07;97.04
8585;BME280;7180;52.742;11.420;2023-01-29T02:25:29;101849.88;;;1.00;97.68
8585;BME280;7180;52.742;11.420;2023-01-29T02:28:13;101853.34;;;0.93;97.81
8585;BME280;7180;52.742;11.420;2023-01-29T02:30:44;101899.94;;;0.99;98.24
8585;BME280;7180;52.742;11.420;2023-01-29T02:33:54;101896.50;;;1.03;97.86
8585;BME280;7180;52.742;11.420;2023-01-29T02:36:34;101912.03;;;1.13;98.26
8585;BME280;7180;52.742;11.420;2023-01-29T02:44:46;101894.78;;;1.15;98.04
8585;BME280;7180;52.742;11.420;2023-01-29T02:47:22;101896.50;;;1.13;97.93
8585;BME280;7180;52.742;11.420;2023-01-29T02:49:56;101884.41;;;1.08;97.99
8585;BME280;7180;52.742;11.420;2023-01-29T02:52:52;101916.38;;;1.27;98.22
8585;BME280;7180;52.742;11.420;2023-01-29T02:55:27;101874.94;;;1.15;98.26
8585;BME280;7180;52.742;11.420;2023-01-29T02:58:00;101874.94;;;1.17;98.14
8585;BME280;7180;52.742;11.420;2023-01-29T03:00:33;101875.78;;;1.13;97.91
8585;BME280;7180;52.742;11.420;2023-01-29T03:03:22;101893.06;;;1.17;98.51
8585;BME280;7180;52.742;11.420;2023-01-29T03:06:15;101885.28;;;1.11;98.21
8585;BME280;7180;52.742;11.420;2023-01-29T03:08:56;101891.31;;;1.13;98.53
8585;BME280;7180;52.742;11.420;2023-01-29T03:11:23;101891.31;;;1.13;98.62
8585;BME280;7180;52.742;11.420;2023-01-29T03:13:55;101874.03;;;1.08;98.25
8585;BME280;7180;52.742;11.420;2023-01-29T03:16:31;101858.50;;;0.99;98.60
8585;BME280;7180;52.742;11.420;2023-01-29T03:19:03;101880.09;;;1.04;98.92
8585;BME280;7180;52.742;11.420;2023-01-29T03:21:33;101879.22;;;0.96;98.84
8585;BME280;7180;52.742;11.420;2023-01-29T03:24:52;101889.59;;;0.96;99.16
8585;BME280;7180;52.742;11.420;2023-01-29T03:27:48;101951.78;;;1.15;99.29
8585;BME280;7180;52.742;11.420;2023-01-29T03:30:37;101919.81;;;1.05;99.19
8585;BME280;7180;52.742;11.420;2023-01-29T03:33:25;101920.69;;;1.10;99.51
8585;BME280;7180;52.742;11.420;2023-01-29T03:35:56;101908.59;;;1.09;99.57
8585;BME280;7180;52.742;11.420;2023-01-29T03:38:25;101930.19;;;1.17;99.69
8585;BME280;7180;52.742;11.420;2023-01-29T03:43:30;101899.09;;;1.11;99.35
8585;BME280;7180;52.742;11.420;2023-01-29T03:46:03;101879.22;;;1.08;99.47
8585;BME280;7180;52.742;11.420;2023-01-29T03:48:35;101862.81;;;1.06;99.55
8585;BME280;7180;52.742;11.420;2023-01-29T03:51:08;101862.81;;;1.05;99.74
8585;BME280;7180;52.742;11.420;2023-01-29T03:53:42;101869.72;;;1.12;99.30
8585;BME280;7180;52.742;11.420;2023-01-29T04:01:53;101869.75;;;1.06;99.79
8585;BME280;7180;52.742;11.420;2023-01-29T04:04:26;101899.09;;;1.20;100.00
8585;BME280;7180;52.742;11.420;2023-01-29T04:06:56;101867.13;;;1.11;99.90
8585;BME280;7180;52.742;11.420;2023-01-29T04:09:36;101863.69;;;1.16;100.00
8585;BME280;7180;52.742;11.420;2023-01-29T04:12:07;101856.78;;;1.20;99.90
8585;BME280;7180;52.742;11.420;2023-01-29T04:14:33;101849.88;;;1.31;99.40
8585;BME280;7180;52.742;11.420;2023-01-29T04:17:02;101823.13;;;1.17;99.65
8585;BME280;7180;52.742;11.420;2023-01-29T04:19:30;101820.53;;;1.11;99.83
8585;BME280;7180;52.742;11.420;2023-01-29T04:22:04;101823.09;;;1.12;99.58
8585;BME280;7180;52.742;11.420;2023-01-29T04:24:31;101838.66;;;1.18;99.85
8585;BME280;7180;52.742;11.420;2023-01-29T04:27:05;101806.72;;;1.05;99.70
8585;BME280;7180;52.742;11.420;2023-01-29T04:29:41;101819.66;;;1.07;99.85
8585;BME280;7180;52.742;11.420;2023-01-29T04:32:14;101816.22;;;0.99;99.77
8585;BME280;7180;52.742;11.420;2023-01-29T04:37:35;101854.19;;;1.11;100.00
8585;BME280;7180;52.742;11.420;2023-01-29T04:40:27;101851.59;;;1.09;100.00
8585;BME280;7180;52.742;11.420;2023-01-29T04:43:43;101856.81;;;1.14;100.00
8585;BME280;7180;52.742;11.420;2023-01-29T04:48:30;101814.50;;;1.04;100.00
8585;BME280;7180;52.742;11.420;2023-01-29T04:51:10;101812.78;;;1.04;100.00
8585;BME280;7180;52.742;11.420;2023-01-29T04:53:46;101807.56;;;1.00;99.95
8585;BME280;7180;52.742;11.420;2023-01-29T04:56:22;101846.41;;;1.21;100.00
8585;BME280;7180;52.742;11.420;2023-01-29T04:58:58;101823.97;;;1.19;100.00
8585;BME280;7180;52.742;11.420;2023-01-29T05:01:26;101781.69;;;1.04;99.87
8585;BME280;7180;52.742;11.420;2023-01-29T05:03:54;101806.72;;;1.12;100.00
8585;BME280;7180;52.742;11.420;2023-01-29T05:06:21;101797.22;;;1.09;100.00
8585;BME280;7180;52.742;11.420;2023-01-29T05:08:48;101824.84;;;1.24;100.00
8585;BME280;7180;52.742;11.420;2023-01-29T05:11:16;101801.53;;;1.16;100.00
8585;BME280;7180;52.742;11.420;2023-01-29T05:13:42;101788.59;;;1.13;100.00
8585;BME280;7180;52.742;11.420;2023-01-29T05:16:29;101789.47;;;1.04;99.98
8585;BME280;7180;52.742;11.420;2023-01-29T05:19:08;101812.75;;;1.03;100.00
8585;BME280;7180;52.742;11.420;2023-01-29T05:21:33;101849.88;;;1.06;100.00
8585;BME280;7180;52.742;11.420;2023-01-29T05:24:10;101882.72;;;1.14;100.00
8585;BME280;7180;52.742;11.420;2023-01-29T05:26:35;101864.53;;;1.03;100.00
8585;BME280;7180;52.742;11.420;2023-01-29T05:29:19;101884.41;;;1.08;100.00
8585;BME280;7180;52.742;11.420;2023-01-29T05:31:45;101890.47;;;1.09;100.00
8585;BME280;7180;52.742;11.420;2023-01-29T05:34:10;101897.38;;;1.18;100.00
8585;BME280;7180;52.742;11.420;2023-01-29T05:36:35;101892.19;;;1.18;100.00
8585;BME280;7180;52.742;11.420;2023-01-29T05:39:00;101901.72;;;1.26;100.00
8585;BME280;7180;52.742;11.420;2023-01-29T05:41:26;101865.41;;;1.14;100.00
8585;BME280;7180;52.742;11.420;2023-01-29T05:43:51;101855.94;;;1.04;100.00
8585;BME280;7180;52.742;11.420;2023-01-29T05:46:16;101847.28;;;0.94;100.00
8585;BME280;7180;52.742;11.420;2023-01-29T05:48:42;101874.91;;;0.94;100.00
8585;BME280;7180;52.742;11.420;2023-01-29T05:51:07;101900.81;;;0.98;100.00
8585;BME280;7180;52.742;11.420;2023-01-29T05:53:32;101917.22;;;1.02;100.00
8585;BME280;7180;52.742;11.420;2023-01-29T05:56:02;101900.78;;;0.94;100.00
8585;BME280;7180;52.742;11.420;2023-01-29T05:58:29;101918.06;;;0.98;100.00
8585;BME280;7180;52.742;11.420;2023-01-29T06:00:55;101922.38;;;0.96;100.00
8585;BME280;7180;52.742;11.420;2023-01-29T06:03:20;101941.41;;;1.01;100.00
8585;BME280;7180;52.742;11.420;2023-01-29T06:05:46;101968.19;;;1.15;100.00
8585;BME280;7180;52.742;11.420;2023-01-29T06:08:11;101920.66;;;1.07;100.00
8585;BME280;7180;52.742;11.420;2023-01-29T06:10:37;101915.50;;;1.08;100.00
8585;BME280;7180;52.742;11.420;2023-01-29T06:13:02;101890.44;;;0.92;100.00
8585;BME280;7180;52.742;11.420;2023-01-29T06:15:27;101895.63;;;1.00;100.00
8585;BME280;7180;52.742;11.420;2023-01-29T06:17:53;101886.16;;;0.99;100.00
8585;BME280;7180;52.742;11.420;2023-01-29T06:20:19;101887.84;;;1.01;100.00
8585;BME280;7180;52.742;11.420;2023-01-29T06:22:45;101901.69;;;1.10;100.00
8585;BME280;7180;52.742;11.420;2023-01-29T06:25:10;101861.13;;;1.01;100.00
8585;BME280;7180;52.742;11.420;2023-01-29T06:27:35;101858.50;;;0.99;100.00
8585;BME280;7180;52.742;11.420;2023-01-29T06:30:05;101856.78;;;0.91;100.00
8585;BME280;7180;52.742;11.420;2023-01-29T06:32:30;101865.41;;;0.94;100.00
8585;BME280;7180;52.742;11.420;2023-01-29T06:34:56;101859.38;;;0.88;100.00
8585;BME280;7180;52.742;11.420;2023-01-29T06:37:21;101861.97;;;0.86;100.00
8585;BME280;7180;52.742;11.420;2023-01-29T06:39:46;101872.31;;;0.89;100.00
8585;BME280;7180;52.742;11.420;2023-01-29T06:42:11;101886.13;;;0.94;100.00
8585;BME280;7180;52.742;11.420;2023-01-29T06:44:37;101877.50;;;0.92;100.00
8585;BME280;7180;52.742;11.420;2023-01-29T06:47:02;101852.47;;;0.90;100.00
8585;BME280;7180;52.742;11.420;2023-01-29T06:49:27;101864.53;;;0.89;100.00
8585;BME280;7180;52.742;11.420;2023-01-29T06:51:52;101877.50;;;0.95;100.00
8585;BME280;7180;52.742;11.420;2023-01-29T06:54:18;101893.03;;;0.92;100.00
8585;BME280;7180;52.742;11.420;2023-01-29T06:56:43;101900.81;;;0.98;100.00
8585;BME280;7180;52.742;11.420;2023-01-29T06:59:10;101899.09;;;1.05;100.00
8585;BME280;7180;52.742;11.420;2023-01-29T07:01:38;101904.28;;;1.22;100.00
8585;BME280;7180;52.742;11.420;2023-01-29T07:04:05;101891.34;;;1.29;100.00
8585;BME280;7180;52.742;11.420;2023-01-29T07:06:30;101848.16;;;1.12;100.00
8585;BME280;7180;52.742;11.420;2023-01-29T07:08:55;101838.66;;;1.11;100.00
8585;BME280;7180;52.742;11.420;2023-01-29T07:11:20;101848.16;;;1.12;100.00
8585;BME280;7180;52.742;11.420;2023-01-29T07:13:46;101877.50;;;1.17;100.00
8585;BME280;7180;52.742;11.420;2023-01-29T07:16:11;101891.34;;;1.28;100.00
8585;BME280;7180;52.742;11.420;2023-01-29T07:18:36;101883.56;;;1.31;100.00
8585;BME280;7180;52.742;11.420;2023-01-29T07:21:05;101867.16;;;1.35;100.00
8585;BME280;7180;52.742;11.420;2023-01-29T07:23:31;101827.41;;;1.42;100.00
8585;BME280;7180;52.742;11.420;2023-01-29T07:26:00;101764.38;;;1.25;100.00
8585;BME280;7180;52.742;11.420;2023-01-29T07:28:26;101744.50;;;1.27;100.00
8585;BME280;7180;52.742;11.420;2023-01-29T07:30:55;101722.94;;;1.20;100.00
8585;BME280;7180;52.742;11.420;2023-01-29T07:33:20;101740.19;;;1.27;100.00
8585;BME280;7180;52.742;11.420;2023-01-29T07:35:46;101727.25;;;1.26;100.00
8585;BME280;7180;52.742;11.420;2023-01-29T07:38:11;101746.19;;;1.40;100.00
8585;BME280;7180;52.742;11.420;2023-01-29T07:40:36;101737.56;;;1.41;100.00
8585;BME280;7180;52.742;11.420;2023-01-29T07:43:04;101715.09;;;1.43;100.00
8585;BME280;7180;52.742;11.420;2023-01-29T07:45:32;101705.59;;;1.40;99.85
8585;BME280;7180;52.742;11.420;2023-01-29T07:47:58;101684.91;;;1.37;99.75
8585;BME280;7180;52.742;11.420;2023-01-29T07:50:25;101698.66;;;1.47;100.00
8585;BME280;7180;52.742;11.420;2023-01-29T07:52:52;101682.28;;;1.46;100.00
8585;BME280;7180;52.742;11.420;2023-01-29T07:55:17;101694.34;;;1.49;99.76
8585;BME280;7180;52.742;11.420;2023-01-29T07:57:43;101699.47;;;1.58;99.99
8585;BME280;7180;52.742;11.420;2023-01-29T08:00:09;101642.53;;;1.46;99.81
8585;BME280;7180;52.742;11.420;2023-01-29T08:02:35;101647.72;;;1.46;99.36
8585;BME280;7180;52.742;11.420;2023-01-29T08:05:01;101624.44;;;1.35;99.72
8585;BME280;7180;52.742;11.420;2023-01-29T08:07:26;101644.25;;;1.39;99.80
8585;BME280;7180;52.742;11.420;2023-01-29T08:09:51;101676.19;;;1.50;99.48
8585;BME280;7180;52.742;11.420;2023-01-29T08:12:16;101658.03;;;1.52;99.55
8585;BME280;7180;52.742;11.420;2023-01-29T08:14:42;101652.81;;;1.61;99.50
8585;BME280;7180;52.742;11.420;2023-01-29T08:17:07;101606.25;;;1.46;98.85
8585;BME280;7180;52.742;11.420;2023-01-29T08:19:32;101599.28;;;1.52;99.26
8585;BME280;7180;52.742;11.420;2023-01-29T08:21:57;101597.53;;;1.56;99.02
8585;BME280;7180;52.742;11.420;2023-01-29T08:24:23;101612.19;;;1.66;99.28
8585;BME280;7180;52.742;11.420;2023-01-29T08:26:48;101623.38;;;1.72;98.78
8585;BME280;7180;52.742;11.420;2023-01-29T08:29:13;101635.41;;;1.81;98.93
8585;BME280;7180;52.742;11.420;2023-01-29T08:31:39;101604.31;;;1.79;98.87
8585;BME280;7180;52.742;11.420;2023-01-29T08:34:04;101590.47;;;1.82;98.30
8585;BME280;7180;52.742;11.420;2023-01-29T08:36:29;101568.06;;;1.75;98.62
8585;BME280;7180;52.742;11.420;2023-01-29T08:38:54;101552.38;;;1.87;98.17
8585;BME280;7180;52.742;11.420;2023-01-29T08:41:20;101477.41;;;1.60;98.10
8585;BME280;7180;52.742;11.420;2023-01-29T08:43:45;101514.50;;;1.71;98.12
8585;BME280;7180;52.742;11.420;2023-01-29T08:46:11;101509.28;;;1.77;97.61
8585;BME280;7180;52.742;11.420;2023-01-29T08:48:36;101483.41;;;1.66;97.57
8585;BME280;7180;52.742;11.420;2023-01-29T08:51:02;101482.44;;;1.78;97.76
8585;BME280;7180;52.742;11.420;2023-01-29T08:53:28;101433.31;;;1.66;96.93
8585;BME280;7180;52.742;11.420;2023-01-29T08:55:54;101441.91;;;1.71;97.42
8585;BME280;7180;52.742;11.420;2023-01-29T08:58:19;101434.94;;;1.76;96.99
8585;BME280;7180;52.742;11.420;2023-01-29T09:00:44;101434.91;;;1.79;97.04
8585;BME280;7180;52.742;11.420;2023-01-29T09:03:10;101434.81;;;1.86;96.71
8585;BME280;7180;52.742;11.420;2023-01-29T09:05:36;101410.63;;;1.89;96.65
8585;BME280;7180;52.742;11.420;2023-01-29T09:08:03;101341.53;;;1.82;95.85
8585;BME280;7180;52.742;11.420;2023-01-29T09:10:28;101343.28;;;1.81;95.65
8585;BME280;7180;52.742;11.420;2023-01-29T09:12:54;101336.22;;;1.94;95.99
8585;BME280;7180;52.742;11.420;2023-01-29T09:15:19;101294.81;;;1.86;95.24
8585;BME280;7180;52.742;11.420;2023-01-29T09:17:44;101271.56;;;1.79;95.03
8585;BME280;7180;52.742;11.420;2023-01-29T09:20:10;101276.84;;;1.70;94.98
8585;BME280;7180;52.742;11.420;2023-01-29T09:22:35;101329.47;;;1.79;95.33
8585;BME280;7180;52.742;11.420;2023-01-29T09:25:01;101320.00;;;1.77;95.43
8585;BME280;7180;52.742;11.420;2023-01-29T09:27:26;101300.16;;;1.73;94.99
8585;BME280;7180;52.742;11.420;2023-01-29T09:29:52;101291.59;;;1.68;95.29
8585;BME280;7180;52.742;11.420;2023-01-29T09:32:17;101269.16;;;1.61;95.18
8585;BME280;7180;52.742;11.420;2023-01-29T09:34:42;101306.31;;;1.61;95.75
8585;BME280;7180;52.742;11.420;2023-01-29T09:37:07;101320.91;;;1.73;95.53
8585;BME280;7180;52.742;11.420;2023-01-29T09:39:33;101301.09;;;1.67;95.19
8585;BME280;7180;52.742;11.420;2023-01-29T09:42:22;101333.88;;;1.70;95.60
8585;BME280;7180;52.742;11.420;2023-01-29T09:47:34;101344.97;;;1.84;95.60
8585;BME280;7180;52.742;11.420;2023-01-29T09:50:04;101369.06;;;1.95;95.75
8585;BME280;7180;52.742;11.420;2023-01-29T09:52:45;101366.44;;;1.98;95.36
8585;BME280;7180;52.742;11.420;2023-01-29T09:55:26;101360.31;;;2.00;95.54
8585;BME280;7180;52.742;11.420;2023-01-29T09:57:58;101348.13;;;2.10;95.52
8585;BME280;7180;52.742;11.420;2023-01-29T10:00:33;101326.56;;;2.05;94.90
8585;BME280;7180;52.742;11.420;2023-01-29T10:03:11;101354.09;;;2.17;95.43
8585;BME280;7180;52.742;11.420;2023-01-29T10:06:51;101368.59;;;2.31;95.38
8585;BME280;7180;52.742;11.420;2023-01-29T10:09:29;101378.72;;;2.52;95.36
8585;BME280;7180;52.742;11.420;2023-01-29T10:17:55;101320.84;;;3.54;93.66
8585;BME280;7180;52.742;11.420;2023-01-29T10:23:21;101169.75;;;3.66;92.41
8585;BME280;7180;52.742;11.420;2023-01-29T10:25:49;101071.91;;;3.62;91.81
8585;BME280;7180;52.742;11.420;2023-01-29T10:28:28;101028.44;;;3.67;91.66
8585;BME280;7180;52.742;11.420;2023-01-29T10:30:59;100982.41;;;3.70;90.98
8585;BME280;7180;52.742;11.420;2023-01-29T10:33:32;100987.09;;;3.91;90.56
8585;BME280;7180;52.742;11.420;2023-01-29T10:36:02;100901.44;;;3.84;90.23
8585;BME280;7180;52.742;11.420;2023-01-29T10:43:42;100866.63;;;3.56;90.30
8585;BME280;7180;52.742;11.420;2023-01-29T10:46:22;100854.00;;;3.42;90.39
8585;BME280;7180;52.742;11.420;2023-01-29T10:49:09;100937.38;;;3.68;90.47
8585;BME280;7180;52.742;11.420;2023-01-29T10:54:29;100821.50;;;3.58;89.98
8585;BME280;7180;52.742;11.420;2023-01-29T10:57:00;100873.19;;;3.72;90.26
8585;BME280;7180;52.742;11.420;2023-01-29T10:59:41;100841.59;;;3.53;90.35
8585;BME280;7180;52.742;11.420;2023-01-29T11:02:14;100819.66;;;3.30;90.27
8585;BME280;7180;52.742;11.420;2023-01-29T11:04:41;100833.25;;;3.05;90.54
8585;BME280;7180;52.742;11.420;2023-01-29T11:07:07;100935.53;;;3.01;91.52
8585;BME280;7180;52.742;11.420;2023-01-29T11:09:38;101038.34;;;3.11;91.73
8585;BME280;7180;52.742;11.420;2023-01-29T11:12:12;101110.63;;;3.36;92.58
8585;BME280;7180;52.742;11.420;2023-01-29T11:15:06;101069.91;;;3.35;92.34
8585;BME280;7180;52.742;11.420;2023-01-29T11:17:38;101082.03;;;3.36;92.11
8585;BME280;7180;52.742;11.420;2023-01-29T11:20:05;101061.41;;;3.28;92.33
8585;BME280;7180;52.742;11.420;2023-01-29T11:22:53;101081.47;;;3.20;92.57
8585;BME280;7180;52.742;11.420;2023-01-29T11:25:20;101122.97;;;3.25;92.92
8585;BME280;7180;52.742;11.420;2023-01-29T11:27:55;101119.59;;;3.19;92.99
8585;BME280;7180;52.742;11.420;2023-01-29T11:30:24;101150.66;;;3.26;93.24
8585;BME280;7180;52.742;11.420;2023-01-29T11:33:02;101130.84;;;3.20;93.42
8585;BME280;7180;52.742;11.420;2023-01-29T11:35:29;101139.69;;;3.11;93.34
8585;BME280;7180;52.742;11.420;2023-01-29T11:38:07;101224.97;;;3.36;93.61
8585;BME280;7180;52.742;11.420;2023-01-29T11:40:38;101217.00;;;3.45;93.93
8585;BME280;7180;52.742;11.420;2023-01-29T11:43:21;101174.03;;;3.26;94.03
8585;BME280;7180;52.742;11.420;2023-01-29T11:45:50;101170.53;;;3.28;93.65
8585;BME280;7180;52.742;11.420;2023-01-29T11:48:18;101230.00;;;3.45;93.88
8585;BME280;7180;52.742;11.420;2023-01-29T11:50:56;101155.03;;;3.24;93.92
8585;BME280;7180;52.742;11.420;2023-01-29T11:55:59;101189.16;;;3.50;93.76
8585;BME280;7180;52.742;11.420;2023-01-29T11:58:30;101100.25;;;3.33;93.55
8585;BME280;7180;52.742;11.420;2023-01-29T12:00:57;101119.09;;;3.44;93.33
8585;BME280;7180;52.742;11.420;2023-01-29T12:03:31;101117.31;;;3.46;93.42
8585;BME280;7180;52.742;11.420;2023-01-29T12:06:04;101100.41;;;3.65;93.27
8585;BME280;7180;52.742;11.420;2023-01-29T12:08:35;101062.25;;;3.67;92.70
8585;BME280;7180;52.742;11.420;2023-01-29T12:11:14;100932.28;;;3.29;92.11
8585;BME280;7180;52.742;11.420;2023-01-29T12:13:56;100947.53;;;3.44;92.39
8585;BME280;7180;52.742;11.420;2023-01-29T12:16:51;100913.34;;;3.24;92.24
8585;BME280;7180;52.742;11.420;2023-01-29T12:19:30;100924.03;;;3.11;92.44
8585;BME280;7180;52.742;11.420;2023-01-29T12:22:05;100957.91;;;3.08;92.28
8585;BME280;7180;52.742;11.420;2023-01-29T12:24:41;100976.66;;;3.19;92.75
8585;BME280;7180;52.742;11.420;2023-01-29T12:27:37;100995.75;;;3.18;92.39
8585;BME280;7180;52.742;11.420;2023-01-29T12:30:10;100993.09;;;3.22;92.66
8585;BME280;7180;52.742;11.420;2023-01-29T12:35:46;100997.28;;;3.27;92.85
8585;BME280;7180;52.742;11.420;2023-01-29T12:38:17;100969.69;;;3.23;92.66
8585;BME280;7180;52.742;11.420;2023-01-29T12:40:46;101024.84;;;3.34;92.48
8585;BME280;7180;52.742;11.420;2023-01-29T12:43:17;100991.09;;;3.33;92.55
8585;BME280;7180;52.742;11.420;2023-01-29T12:45:50;100988.41;;;3.37;92.18
8585;BME280;7180;52.742;11.420;2023-01-29T12:48:24;100881.56;;;3.12;92.38
8585;BME280;7180;52.742;11.420;2023-01-29T12:50:51;100943.75;;;3.20;92.26
8585;BME280;7180;52.742;11.420;2023-01-29T12:53:25;100952.22;;;3.30;92.55
8585;BME280;7180;52.742;11.420;2023-01-29T12:56:02;100952.16;;;3.31;92.65
8585;BME280;7180;52.742;11.420;2023-01-29T12:58:36;100913.41;;;3.22;92.51
8585;BME280;7180;52.742;11.420;2023-01-29T13:01:11;100965.97;;;3.33;92.88
8585;BME280;7180;52.742;11.420;2023-01-29T13:03:47;100992.34;;;3.55;92.39
8585;BME280;7180;52.742;11.420;2023-01-29T13:06:17;100949.78;;;3.59;92.35
8585;BME280;7180;52.742;11.420;2023-01-29T13:08:47;100897.03;;;3.54;92.27
8585;BME280;7180;52.742;11.420;2023-01-29T13:11:55;100907.03;;;3.69;91.88
8585;BME280;7180;52.742;11.420;2023-01-29T13:14:22;100869.72;;;3.71;92.17
8585;BME280;7180;52.742;11.420;2023-01-29T13:16:51;100856.91;;;3.64;91.85
8585;BME280;7180;52.742;11.420;2023-01-29T13:19:28;100870.81;;;3.63;91.70
8585;BME280;7180;52.742;11.420;2023-01-29T13:21:59;100875.06;;;3.65;91.76
8585;BME280;7180;52.742;11.420;2023-01-29T13:24:38;100826.81;;;3.55;91.92
8585;BME280;7180;52.742;11.420;2023-01-29T13:27:04;100827.63;;;3.56;91.61
8585;BME280;7180;52.742;11.420;2023-01-29T13:29:31;100859.63;;;3.59;91.72
8585;BME280;7180;52.742;11.420;2023-01-29T13:31:58;100855.81;;;3.72;91.61
8585;BME280;7180;52.742;11.420;2023-01-29T13:34:29;100776.34;;;3.62;91.27
8585;BME280;7180;52.742;11.420;2023-01-29T13:37:09;100777.78;;;3.72;91.16
8585;BME280;7180;52.742;11.420;2023-01-29T13:39:37;100770.50;;;3.85;91.22
8585;BME280;7180;52.742;11.420;2023-01-29T13:42:36;100706.00;;;3.67;90.62
8585;BME280;7180;52.742;11.420;2023-01-29T13:45:05;100713.63;;;3.73;90.98
8585;BME280;7180;52.742;11.420;2023-01-29T13:47:34;100621.66;;;3.48;90.52
8585;BME280;7180;52.742;11.420;2023-01-29T13:52:58;100651.97;;;3.47;90.48
8585;BME280;7180;52.742;11.420;2023-01-29T13:55:30;100664.91;;;3.50;90.72
8585;BME280;7180;52.742;11.420;2023-01-29T13:58:04;100616.97;;;3.30;90.89
8585;BME280;7180;52.742;11.420;2023-01-29T14:08:04;100670.13;;;3.49;90.87
8585;BME280;7180;52.742;11.420;2023-01-29T14:10:31;100671.41;;;3.34;91.25
8585;BME280;7180;52.742;11.420;2023-01-29T14:15:37;100691.44;;;3.31;91.36
8585;BME280;7180;52.742;11.420;2023-01-29T14:18:15;100683.81;;;3.25;91.27
8585;BME280;7180;52.742;11.420;2023-01-29T14:20:55;100723.38;;;3.36;91.56
8585;BME280;7180;52.742;11.420;2023-01-29T14:23:40;100722.38;;;3.40;91.31
8585;BME280;7180;52.742;11.420;2023-01-29T14:31:52;100666.84;;;3.11;91.28
8585;BME280;7180;52.742;11.420;2023-01-29T14:34:30;100753.19;;;3.21;91.95
8585;BME280;7180;52.742;11.420;2023-01-29T14:39:44;100760.38;;;3.11;92.23
8585;BME280;7180;52.742;11.420;2023-01-29T14:42:26;100806.13;;;3.17;92.67